Saint Marks, Florida
Current Conditions -  °F | °C
As of 7:53 PM on Tuesday 27 Jan 2015 (Local Time) from KTLH Reporting Station
Clear Clear  
Wind Chill:   Ceiling: Unl
Heat Index:   Visibility: 10mi
Dew Point:   Wind: 0mph
Humidity: 56%   Direction: NA
Pressure: 30.03"   Gusts: NA
Location:  30.16°N, 84.21°W
Report Text: KTLH 280053Z 00000KT 10SM CLR 09/01 A3003 RMK AO2 SLP169 T00940011 $
Loading
Personal Weather Stations






























Interactive Weather Map New forecast layout! Learn more

10-Day Weather Forecast

Advertisements
Track Severe Weather on mobile